Terminal Aerodrome Forecast
Issued by NWS Sterling, VA

Home | Current Version | Previous Version | Text Only | Print | Product List | Glossary On
Versions: 1 2 3 4 5 6 7 8 9 10 11 12 13 14 15 16 17 18 19 20 21
636
FTUS41 KLWX 292332
TAFBWI
TAF
KBWI 292332Z 3000/3106 16005KT 3SM +SHRA BR SCT006 OVC070
      TEMPO 3000/3003 BKN006
     FM300300 16005KT 3SM SHRA BR OVC010
     FM300700 VRB03KT 3SM -SHRA BR OVC008
     FM301500 34004KT 5SM -SHRA BR OVC040
     FM301700 26004KT P6SM OVC040
     FM301900 VRB03KT P6SM BKN080=

USA.gov is the U.S. government's official web portal to all federal, state and local government web resources and services.